createdAt,value
2023-01-31T00:00:11.673Z,1.52
2023-01-31T00:02:40.111Z,1.60
2023-01-31T00:05:09.005Z,2.67
2023-01-31T00:07:37.651Z,1.95
2023-01-31T00:10:06.313Z,1.90
2023-01-31T00:12:35.050Z,2.03
2023-01-31T00:15:03.579Z,1.90
2023-01-31T00:17:32.007Z,1.80
2023-01-31T00:20:00.379Z,1.90
2023-01-31T00:22:28.796Z,1.75
2023-01-31T00:24:57.155Z,1.90
2023-01-31T00:27:25.527Z,1.80
2023-01-31T00:29:54.022Z,1.65
2023-01-31T00:32:22.486Z,1.60
2023-01-31T00:34:50.937Z,1.63
2023-01-31T00:37:19.379Z,1.67
2023-01-31T00:39:47.755Z,2.00
2023-01-31T00:42:16.175Z,2.17
2023-01-31T00:44:44.650Z,1.90
2023-01-31T00:47:13.028Z,2.05
2023-01-31T00:49:41.422Z,1.90
2023-01-31T00:52:09.894Z,2.10
2023-01-31T00:54:38.282Z,1.60
2023-01-31T00:57:06.650Z,1.88
2023-01-31T00:59:35.554Z,1.70
2023-01-31T01:02:04.166Z,1.95
2023-01-31T01:04:32.944Z,1.92
2023-01-31T01:07:01.571Z,2.00
2023-01-31T01:09:29.956Z,2.20
2023-01-31T01:11:58.376Z,2.22
2023-01-31T01:14:27.299Z,2.33
2023-01-31T01:16:59.087Z,2.40
2023-01-31T01:19:27.561Z,2.00
2023-01-31T01:21:56.822Z,1.92
2023-01-31T01:24:25.263Z,2.08
2023-01-31T01:26:53.850Z,2.70
2023-01-31T01:29:22.259Z,2.20
2023-01-31T01:31:50.754Z,1.55
2023-01-31T01:34:19.208Z,2.00
2023-01-31T01:36:48.195Z,1.80
2023-01-31T01:39:17.425Z,1.42
2023-01-31T01:41:46.548Z,1.80
2023-01-31T01:44:50.652Z,2.60
2023-01-31T01:47:55.038Z,2.00
2023-01-31T01:50:43.518Z,2.60
2023-01-31T01:53:16.810Z,1.92
2023-01-31T01:55:52.707Z,2.08
2023-01-31T01:58:32.175Z,2.20
2023-01-31T02:01:01.272Z,2.50
2023-01-31T02:03:29.797Z,1.67
2023-01-31T02:06:01.484Z,1.88
2023-01-31T02:08:33.767Z,2.13
2023-01-31T02:11:28.487Z,2.42
2023-01-31T02:14:04.128Z,2.28
2023-01-31T02:16:32.763Z,1.85
2023-01-31T02:19:01.811Z,2.05
2023-01-31T02:21:43.801Z,2.15
2023-01-31T02:24:33.832Z,2.10
2023-01-31T02:27:30.198Z,1.90
2023-01-31T02:30:56.661Z,2.30
2023-01-31T02:33:39.248Z,2.13
2023-01-31T02:36:19.130Z,2.42
2023-01-31T02:39:26.478Z,2.00
2023-01-31T02:41:58.100Z,2.13
2023-01-31T02:45:00.174Z,2.25
2023-01-31T02:47:54.360Z,2.92
2023-01-31T02:50:46.460Z,3.40
2023-01-31T02:53:23.959Z,4.25
2023-01-31T02:56:11.016Z,2.30
2023-01-31T02:58:41.629Z,2.03
2023-01-31T03:01:15.429Z,2.22
2023-01-31T03:03:43.975Z,2.05
2023-01-31T03:06:37.847Z,2.08
2023-01-31T03:09:38.426Z,2.95
2023-01-31T03:12:37.233Z,2.53
2023-01-31T03:15:19.655Z,2.47
2023-01-31T03:18:09.639Z,2.50
2023-01-31T03:20:50.854Z,3.83
2023-01-31T03:23:22.682Z,2.80
2023-01-31T03:25:52.236Z,3.38
2023-01-31T03:28:26.736Z,3.65
2023-01-31T03:31:02.807Z,3.55
2023-01-31T03:33:39.058Z,4.10
2023-01-31T03:36:24.433Z,3.25
2023-01-31T03:39:32.608Z,3.40
2023-01-31T03:42:38.858Z,3.20
2023-01-31T03:45:11.015Z,2.72
2023-01-31T03:47:39.513Z,2.80
2023-01-31T03:50:14.335Z,2.70
2023-01-31T03:52:53.910Z,2.90
2023-01-31T03:55:29.199Z,2.90
2023-01-31T03:58:00.034Z,4.22
2023-01-31T04:00:29.543Z,5.25
2023-01-31T04:03:05.881Z,3.30
2023-01-31T04:05:34.856Z,4.10
2023-01-31T04:08:03.361Z,4.35
2023-01-31T04:10:32.281Z,3.75
2023-01-31T04:13:02.339Z,3.50
2023-01-31T04:15:30.782Z,3.63
2023-01-31T04:17:59.213Z,2.85
2023-01-31T04:20:28.181Z,2.83
2023-01-31T04:22:56.606Z,3.60
2023-01-31T04:25:24.996Z,3.25
2023-01-31T04:27:53.417Z,4.20
2023-01-31T04:30:21.790Z,4.00
2023-01-31T04:32:50.168Z,3.28
2023-01-31T04:35:18.997Z,3.80
2023-01-31T04:37:47.538Z,2.90
2023-01-31T04:40:15.944Z,3.53
2023-01-31T04:42:44.480Z,3.30
2023-01-31T04:45:13.234Z,3.45
2023-01-31T04:47:41.588Z,2.88
2023-01-31T04:50:10.652Z,2.30
2023-01-31T04:52:39.318Z,2.72
2023-01-31T04:55:08.227Z,2.97
2023-01-31T04:57:36.641Z,2.85
2023-01-31T05:00:06.267Z,3.10
2023-01-31T05:02:34.742Z,3.13
2023-01-31T05:05:03.765Z,2.60
2023-01-31T05:07:32.649Z,2.72
2023-01-31T05:10:01.143Z,2.50
2023-01-31T05:12:29.706Z,2.47
2023-01-31T05:14:58.210Z,2.83
2023-01-31T05:17:30.744Z,2.40
2023-01-31T05:19:59.359Z,2.65
2023-01-31T05:22:28.259Z,2.83
2023-01-31T05:24:58.479Z,2.60
2023-01-31T05:27:27.612Z,2.53
2023-01-31T05:29:56.269Z,2.50
2023-01-31T05:32:24.899Z,2.30
2023-01-31T05:34:53.263Z,2.58
2023-01-31T05:37:21.664Z,2.90
2023-01-31T05:39:50.038Z,2.70
2023-01-31T05:42:18.411Z,2.35
2023-01-31T05:44:46.863Z,2.35
2023-01-31T05:47:15.256Z,2.08
2023-01-31T05:49:43.635Z,2.10
2023-01-31T05:52:12.171Z,1.92
2023-01-31T05:54:40.576Z,2.28
2023-01-31T05:57:09.240Z,2.45
2023-01-31T05:59:37.665Z,2.25
2023-01-31T06:02:06.449Z,4.18
2023-01-31T06:04:34.894Z,2.30
2023-01-31T06:07:03.317Z,2.30
2023-01-31T06:09:32.085Z,2.63
2023-01-31T06:12:00.895Z,2.90
2023-01-31T06:14:29.357Z,2.50
2023-01-31T06:16:58.214Z,3.00
2023-01-31T06:19:27.067Z,2.92
2023-01-31T06:21:55.548Z,2.70
2023-01-31T06:24:24.067Z,2.50
2023-01-31T06:26:52.510Z,2.70
2023-01-31T06:29:21.011Z,2.50
2023-01-31T06:31:49.508Z,2.80
2023-01-31T06:34:18.042Z,2.67
2023-01-31T06:36:46.447Z,3.00
2023-01-31T06:39:15.632Z,3.50
2023-01-31T06:41:44.085Z,3.78
2023-01-31T06:44:12.529Z,2.60
2023-01-31T06:46:40.896Z,2.85
2023-01-31T06:49:09.325Z,2.65
2023-01-31T06:51:37.864Z,3.53
2023-01-31T06:54:06.399Z,3.17
2023-01-31T06:56:34.821Z,2.90
2023-01-31T06:59:03.519Z,2.80
2023-01-31T07:01:31.953Z,3.20
2023-01-31T07:04:00.374Z,3.20
2023-01-31T07:06:28.857Z,3.15
2023-01-31T07:08:57.285Z,3.30
2023-01-31T07:11:25.673Z,3.30
2023-01-31T07:13:54.208Z,3.08
2023-01-31T07:16:24.560Z,2.65
2023-01-31T07:18:56.688Z,2.65
2023-01-31T07:21:27.120Z,3.10
2023-01-31T07:23:55.514Z,3.22
2023-01-31T07:26:24.073Z,2.85
2023-01-31T07:28:54.263Z,3.20
2023-01-31T07:31:22.888Z,3.20
2023-01-31T07:33:51.797Z,2.80
2023-01-31T07:36:27.268Z,2.53
2023-01-31T07:38:57.520Z,3.42
2023-01-31T07:41:26.400Z,3.00
2023-01-31T07:43:54.812Z,3.30
2023-01-31T07:46:23.320Z,3.53
2023-01-31T07:48:51.745Z,3.60
2023-01-31T07:51:20.194Z,3.15
2023-01-31T07:53:49.099Z,2.90
2023-01-31T07:56:20.517Z,2.70
2023-01-31T07:58:50.652Z,2.58
2023-01-31T08:01:42.577Z,3.17
2023-01-31T08:04:27.169Z,2.78
2023-01-31T08:06:56.844Z,2.70
2023-01-31T08:09:25.976Z,2.67
2023-01-31T08:11:54.481Z,2.40
2023-01-31T08:14:27.071Z,2.40
2023-01-31T08:16:58.360Z,2.97
2023-01-31T08:19:27.685Z,2.53
2023-01-31T08:21:56.125Z,2.60
2023-01-31T08:24:24.497Z,2.63
2023-01-31T08:26:53.203Z,2.75
2023-01-31T08:29:21.629Z,2.65
2023-01-31T08:31:52.100Z,2.67
2023-01-31T08:34:21.350Z,3.45
2023-01-31T08:36:49.929Z,2.08
2023-01-31T08:39:18.363Z,2.42
2023-01-31T08:41:46.964Z,2.90
2023-01-31T08:44:15.487Z,2.90
2023-01-31T08:46:44.436Z,3.20
2023-01-31T08:49:12.921Z,2.97
2023-01-31T08:51:41.488Z,2.65
2023-01-31T08:54:11.315Z,3.00
2023-01-31T08:56:39.732Z,4.70
2023-01-31T08:59:08.098Z,3.67
2023-01-31T09:01:36.597Z,3.35
2023-01-31T09:04:05.115Z,3.45
2023-01-31T09:06:33.531Z,3.40
2023-01-31T09:09:01.971Z,3.03
2023-01-31T09:11:31.583Z,2.90
2023-01-31T09:14:00.090Z,2.70
2023-01-31T09:16:29.116Z,3.42
2023-01-31T09:18:58.106Z,2.92
2023-01-31T09:21:27.116Z,3.05
2023-01-31T09:23:58.885Z,3.40
2023-01-31T09:26:27.586Z,2.78
2023-01-31T09:28:58.540Z,3.00
2023-01-31T09:31:27.098Z,3.42
2023-01-31T09:33:56.299Z,2.90
2023-01-31T09:36:28.764Z,4.03
2023-01-31T09:38:57.898Z,3.55
2023-01-31T09:41:35.262Z,4.15
2023-01-31T09:44:17.346Z,3.88
2023-01-31T09:46:53.540Z,4.32
2023-01-31T09:49:26.652Z,3.50
2023-01-31T09:51:59.985Z,3.95
2023-01-31T09:54:36.583Z,3.22
2023-01-31T09:57:13.971Z,3.38
2023-01-31T09:59:56.595Z,3.47
2023-01-31T10:02:43.128Z,3.95
2023-01-31T10:05:31.932Z,3.70
2023-01-31T10:08:10.634Z,3.38
2023-01-31T10:10:45.902Z,3.55
2023-01-31T10:13:37.379Z,3.92
2023-01-31T10:16:25.867Z,3.20
2023-01-31T10:19:19.692Z,3.60
2023-01-31T10:21:53.230Z,3.42
2023-01-31T10:24:47.160Z,3.53
2023-01-31T10:27:33.052Z,2.83
2023-01-31T10:30:05.850Z,3.38
2023-01-31T10:32:43.015Z,3.10
2023-01-31T10:35:42.716Z,3.92
2023-01-31T10:38:14.185Z,4.28
2023-01-31T10:40:46.906Z,3.20
2023-01-31T10:43:22.275Z,3.85
2023-01-31T10:45:50.767Z,3.75
2023-01-31T10:48:27.665Z,3.55
2023-01-31T10:51:15.159Z,3.70
2023-01-31T10:53:43.920Z,4.00
2023-01-31T10:56:29.767Z,4.00
2023-01-31T10:59:01.477Z,3.35
2023-01-31T11:01:30.174Z,4.03
2023-01-31T11:03:58.868Z,3.50
2023-01-31T11:06:27.321Z,3.50
2023-01-31T11:09:00.384Z,3.60
2023-01-31T11:11:30.731Z,4.30
2023-01-31T11:14:06.441Z,3.58
2023-01-31T11:16:41.764Z,3.88
2023-01-31T11:19:36.324Z,3.60
2023-01-31T11:22:05.720Z,3.97
2023-01-31T11:24:36.624Z,4.30
2023-01-31T11:27:09.567Z,3.45
2023-01-31T11:29:50.027Z,3.90
2023-01-31T11:32:25.009Z,3.30
2023-01-31T11:35:22.473Z,3.45
2023-01-31T11:37:55.456Z,4.15
2023-01-31T11:40:53.057Z,3.78
2023-01-31T11:43:21.419Z,4.38
2023-01-31T11:46:04.056Z,3.55
2023-01-31T11:48:37.823Z,4.40
2023-01-31T11:51:06.511Z,3.95
2023-01-31T11:53:37.865Z,4.18
2023-01-31T11:56:19.324Z,4.28
2023-01-31T11:58:51.493Z,4.05
2023-01-31T12:01:23.750Z,4.07
2023-01-31T12:04:03.399Z,3.97
2023-01-31T12:06:41.351Z,3.85
2023-01-31T12:09:25.236Z,4.40
2023-01-31T12:11:59.087Z,4.38
2023-01-31T12:14:42.149Z,3.35
2023-01-31T12:17:19.961Z,4.30
2023-01-31T12:20:25.219Z,4.32
2023-01-31T12:23:06.262Z,4.50
2023-01-31T12:25:57.574Z,3.90
2023-01-31T12:29:26.281Z,4.75
2023-01-31T12:32:23.722Z,4.15
2023-01-31T12:35:00.663Z,4.57
2023-01-31T12:37:47.357Z,5.00
2023-01-31T12:40:37.394Z,4.55
2023-01-31T12:43:30.319Z,5.55
2023-01-31T12:46:20.810Z,4.65
2023-01-31T12:48:58.323Z,4.88
2023-01-31T12:51:37.292Z,4.25
2023-01-31T12:54:14.719Z,5.57
2023-01-31T12:56:48.711Z,5.75
2023-01-31T12:59:42.209Z,4.45
2023-01-31T13:02:25.665Z,3.90
2023-01-31T13:05:25.803Z,3.67
2023-01-31T13:08:28.643Z,4.15
2023-01-31T13:11:12.117Z,3.33
2023-01-31T13:14:07.086Z,3.88
2023-01-31T13:16:46.103Z,4.07
2023-01-31T13:19:46.469Z,3.97
2023-01-31T13:22:43.080Z,4.00
2023-01-31T13:25:32.550Z,3.97
2023-01-31T13:28:26.890Z,3.85
2023-01-31T13:30:59.955Z,4.20
2023-01-31T13:33:51.864Z,4.68
2023-01-31T13:36:36.627Z,4.10
2023-01-31T13:39:13.778Z,4.25
2023-01-31T13:41:42.179Z,4.30
2023-01-31T13:44:15.173Z,4.22
2023-01-31T13:47:14.191Z,4.13
2023-01-31T13:50:07.439Z,4.35
2023-01-31T13:52:42.385Z,4.15
2023-01-31T13:55:22.031Z,3.95
2023-01-31T13:57:58.840Z,4.47
2023-01-31T14:00:51.904Z,4.25
2023-01-31T14:03:22.235Z,4.38
2023-01-31T14:05:59.823Z,4.50
2023-01-31T14:08:28.183Z,5.18
2023-01-31T14:10:58.339Z,4.07
2023-01-31T14:13:29.785Z,5.40
2023-01-31T14:15:59.123Z,4.88
2023-01-31T14:18:57.217Z,5.22
2023-01-31T14:21:31.727Z,4.65
2023-01-31T14:24:07.137Z,4.53
2023-01-31T14:26:42.999Z,5.50
2023-01-31T14:29:16.064Z,5.35
2023-01-31T14:31:45.921Z,5.53
2023-01-31T14:34:21.589Z,5.30
2023-01-31T14:37:08.144Z,5.10
2023-01-31T14:39:48.807Z,4.30
2023-01-31T14:42:29.140Z,3.90
2023-01-31T14:45:24.204Z,5.30
2023-01-31T14:48:02.543Z,4.43
2023-01-31T14:50:52.965Z,4.20
2023-01-31T14:53:41.555Z,5.10
2023-01-31T14:56:12.935Z,4.00
2023-01-31T14:58:46.646Z,4.03
2023-01-31T15:01:19.635Z,4.93
2023-01-31T15:03:59.644Z,4.00
2023-01-31T15:06:36.305Z,4.15
2023-01-31T15:09:22.848Z,3.72
2023-01-31T15:11:55.781Z,5.60
2023-01-31T15:14:39.647Z,4.35
2023-01-31T15:17:27.596Z,4.40
2023-01-31T15:20:21.438Z,3.78
2023-01-31T15:22:51.287Z,3.80
2023-01-31T15:25:32.987Z,4.30
2023-01-31T15:28:03.779Z,4.45
2023-01-31T15:30:36.243Z,4.72
2023-01-31T15:33:19.299Z,4.43
2023-01-31T15:36:14.285Z,4.38
2023-01-31T15:39:08.048Z,4.43
2023-01-31T15:41:44.265Z,4.47
2023-01-31T15:44:27.733Z,4.32
2023-01-31T15:46:58.924Z,4.97
2023-01-31T15:49:38.903Z,4.32
2023-01-31T15:52:15.251Z,4.25
2023-01-31T15:54:53.507Z,4.68
2023-01-31T15:57:26.642Z,4.30
2023-01-31T15:59:56.303Z,4.43
2023-01-31T16:02:31.188Z,4.38
2023-01-31T16:04:59.768Z,3.90
2023-01-31T16:07:32.033Z,4.10
2023-01-31T16:10:04.713Z,4.00
2023-01-31T16:12:34.216Z,4.25
2023-01-31T16:15:07.351Z,4.43
2023-01-31T16:17:36.358Z,4.53
2023-01-31T16:20:06.334Z,5.53
2023-01-31T16:22:34.855Z,5.55
2023-01-31T16:25:05.922Z,4.47
2023-01-31T16:27:39.731Z,3.55
2023-01-31T16:30:08.747Z,3.70
2023-01-31T16:32:41.144Z,3.85
2023-01-31T16:35:30.472Z,4.25
2023-01-31T16:38:27.323Z,3.90
2023-01-31T16:41:01.739Z,4.32
2023-01-31T16:43:32.760Z,4.00
2023-01-31T16:46:18.049Z,4.75
2023-01-31T16:49:03.911Z,5.22
2023-01-31T16:51:32.256Z,3.80
2023-01-31T16:54:22.068Z,4.43
2023-01-31T16:57:07.276Z,4.20
2023-01-31T16:59:35.726Z,4.10
2023-01-31T17:02:13.327Z,4.40
2023-01-31T17:04:43.020Z,4.00
2023-01-31T17:07:24.810Z,4.10
2023-01-31T17:10:02.616Z,3.65
2023-01-31T17:12:34.570Z,4.13
2023-01-31T17:15:04.194Z,5.05
2023-01-31T17:17:38.235Z,3.92
2023-01-31T17:20:07.062Z,4.40
2023-01-31T17:22:35.445Z,4.40
2023-01-31T17:25:04.101Z,3.83
2023-01-31T17:27:32.503Z,4.03
2023-01-31T17:30:01.272Z,3.90
2023-01-31T17:32:32.169Z,4.90
2023-01-31T17:35:00.648Z,4.50
2023-01-31T17:37:32.019Z,6.93
2023-01-31T17:40:01.154Z,6.43
2023-01-31T17:42:29.625Z,6.68
2023-01-31T17:44:58.027Z,5.97
2023-01-31T17:47:27.836Z,4.25
2023-01-31T17:49:57.972Z,3.90
2023-01-31T17:52:26.639Z,4.55
2023-01-31T17:54:55.117Z,4.40
2023-01-31T17:57:23.553Z,4.88
2023-01-31T17:59:53.039Z,4.53
2023-01-31T18:02:21.515Z,4.20
2023-01-31T18:04:49.900Z,4.55
2023-01-31T18:07:18.573Z,3.88
2023-01-31T18:09:46.988Z,4.03
2023-01-31T18:12:15.606Z,4.55
2023-01-31T18:14:44.233Z,4.57
2023-01-31T18:17:12.925Z,4.60
2023-01-31T18:19:41.529Z,3.90
2023-01-31T18:22:09.911Z,4.63
2023-01-31T18:24:38.501Z,4.03
2023-01-31T18:27:06.876Z,4.40
2023-01-31T18:29:35.278Z,3.70
2023-01-31T18:32:06.240Z,4.37
2023-01-31T18:34:35.194Z,3.53
2023-01-31T18:37:13.796Z,3.83
2023-01-31T18:39:42.338Z,3.90
2023-01-31T18:42:10.703Z,3.90
2023-01-31T18:44:39.103Z,3.17
2023-01-31T18:47:07.531Z,3.67
2023-01-31T18:49:36.005Z,4.10
2023-01-31T18:52:07.098Z,4.30
2023-01-31T18:54:36.149Z,4.40
2023-01-31T18:57:04.934Z,4.40
2023-01-31T18:59:35.594Z,3.37
2023-01-31T19:02:04.529Z,4.30
2023-01-31T19:04:32.992Z,5.57
2023-01-31T19:07:01.397Z,5.70
2023-01-31T19:09:29.810Z,4.60
2023-01-31T19:11:58.180Z,4.20
2023-01-31T19:14:26.623Z,4.40
2023-01-31T19:16:55.010Z,5.23
2023-01-31T19:19:23.494Z,4.63
2023-01-31T19:21:51.923Z,5.00
2023-01-31T19:24:20.388Z,5.40
2023-01-31T19:26:48.862Z,5.37
2023-01-31T19:29:17.847Z,5.15
2023-01-31T19:31:46.249Z,4.30
2023-01-31T19:34:14.745Z,5.82
2023-01-31T19:36:45.496Z,4.97
2023-01-31T19:39:14.114Z,5.03
2023-01-31T19:41:43.203Z,4.47
2023-01-31T19:44:12.116Z,4.67
2023-01-31T19:46:40.606Z,4.83
2023-01-31T19:49:09.053Z,5.43
2023-01-31T19:51:38.809Z,6.07
2023-01-31T19:54:07.800Z,5.90
2023-01-31T19:56:36.449Z,6.23
2023-01-31T19:59:06.739Z,6.20
2023-01-31T20:01:35.285Z,6.17
2023-01-31T20:04:03.679Z,6.43
2023-01-31T20:06:34.693Z,5.97
2023-01-31T20:09:08.273Z,5.57
2023-01-31T20:11:37.509Z,5.90
2023-01-31T20:14:07.255Z,5.90
2023-01-31T20:16:35.736Z,6.00
2023-01-31T20:19:04.681Z,4.90
2023-01-31T20:21:33.169Z,3.80
2023-01-31T20:24:01.599Z,4.40
2023-01-31T20:26:30.665Z,4.83
2023-01-31T20:28:59.696Z,5.37
2023-01-31T20:31:28.289Z,5.07
2023-01-31T20:33:56.871Z,4.40
2023-01-31T20:36:25.333Z,4.50
2023-01-31T20:38:54.239Z,4.87
2023-01-31T20:41:25.744Z,4.20
2023-01-31T20:43:54.960Z,4.83
2023-01-31T20:46:23.488Z,4.10
2023-01-31T20:48:52.202Z,4.30
2023-01-31T20:51:20.578Z,4.57
2023-01-31T20:53:49.043Z,4.33
2023-01-31T20:56:17.880Z,4.03
2023-01-31T20:58:46.333Z,3.90
2023-01-31T21:01:14.842Z,4.70
2023-01-31T21:03:43.316Z,3.83
2023-01-31T21:06:11.876Z,4.90
2023-01-31T21:08:41.309Z,4.87
2023-01-31T21:11:12.546Z,5.20
2023-01-31T21:13:41.990Z,5.17
2023-01-31T21:16:12.726Z,5.67
2023-01-31T21:18:44.824Z,5.40
2023-01-31T21:21:23.497Z,5.20
2023-01-31T21:23:54.133Z,5.60
2023-01-31T21:26:25.675Z,4.90
2023-01-31T21:28:55.188Z,6.13
2023-01-31T21:31:23.745Z,6.37
2023-01-31T21:33:53.519Z,6.53
2023-01-31T21:36:26.553Z,7.20
2023-01-31T21:38:55.116Z,6.90
2023-01-31T21:41:41.600Z,5.97
2023-01-31T21:44:10.078Z,6.83
2023-01-31T21:46:38.671Z,6.57
2023-01-31T21:49:07.112Z,6.87
2023-01-31T21:51:35.701Z,6.13
2023-01-31T21:54:04.129Z,6.27
2023-01-31T21:56:32.599Z,6.70
2023-01-31T21:59:01.096Z,6.57
2023-01-31T22:01:32.332Z,6.50
2023-01-31T22:04:01.073Z,7.20
2023-01-31T22:06:35.791Z,7.00
2023-01-31T22:09:05.748Z,8.27
2023-01-31T22:11:35.469Z,6.63
2023-01-31T22:14:06.281Z,6.03
2023-01-31T22:16:35.036Z,6.70
2023-01-31T22:19:04.669Z,7.10
2023-01-31T22:21:35.958Z,6.53
2023-01-31T22:24:06.730Z,6.53
2023-01-31T22:26:38.450Z,6.67
2023-01-31T22:29:09.954Z,7.40
2023-01-31T22:31:38.641Z,6.13
2023-01-31T22:34:08.005Z,7.37
2023-01-31T22:36:36.843Z,6.90
2023-01-31T22:39:05.931Z,7.00
2023-01-31T22:41:34.401Z,6.47
2023-01-31T22:44:02.853Z,6.40
2023-01-31T22:46:31.380Z,6.53
2023-01-31T22:48:59.856Z,6.50
2023-01-31T22:51:29.990Z,6.47
2023-01-31T22:53:59.649Z,6.80
2023-01-31T22:56:31.017Z,6.67
2023-01-31T22:59:01.495Z,6.90
2023-01-31T23:01:33.853Z,7.17
2023-01-31T23:04:05.151Z,7.80
2023-01-31T23:06:33.718Z,6.60
2023-01-31T23:09:02.132Z,6.67
2023-01-31T23:11:30.609Z,6.40
2023-01-31T23:13:59.500Z,7.10
2023-01-31T23:16:48.202Z,6.33
2023-01-31T23:19:17.363Z,7.60
2023-01-31T23:21:46.392Z,7.70
2023-01-31T23:24:15.596Z,7.27
2023-01-31T23:26:44.316Z,7.70
2023-01-31T23:29:13.133Z,7.77
2023-01-31T23:31:41.750Z,7.47
2023-01-31T23:34:10.290Z,7.90
2023-01-31T23:36:38.717Z,7.90
2023-01-31T23:39:07.449Z,10.03
2023-01-31T23:41:35.919Z,7.50
2023-01-31T23:44:04.394Z,7.03
2023-01-31T23:46:33.195Z,8.33
2023-01-31T23:49:01.818Z,7.03
2023-01-31T23:51:32.005Z,8.00
2023-01-31T23:54:00.494Z,8.23
2023-01-31T23:56:28.892Z,7.10
2023-01-31T23:58:57.287Z,7.30
